Terminal Aerodrome Forecast
Issued by NWS

Home | Current Version | Previous Version | Graphics & Text | Print | Product List | Glossary On
Versions: 1 2 3 4 5 6 7 8 9 10 11 12 13 14 15 16 17
000
FTUS43 KBIS 200520
TAFJMS
TAF
KJMS 200520Z 2006/2106 01014KT 1 1/2SM -SN OVC020
     FM201000 36010KT 2SM -SN OVC015
     FM201800 32011KT P6SM BKN025
     FM210000 29009KT P6SM BKN060
     FM210500 25008KT P6SM FEW250=

USA.gov is the U.S. government's official web portal to all federal, state and local government web resources and services.